sensor_id;sensor_type;location;lat;lon;timestamp;P1;durP1;ratioP1;P2;durP2;ratioP2
10452;SDS011;5274;51.992;8.518;2024-03-25T00:00:10;18.60;;;17.00;;
10452;SDS011;5274;51.992;8.518;2024-03-25T00:02:37;19.30;;;17.25;;
10452;SDS011;5274;51.992;8.518;2024-03-25T00:05:03;18.60;;;17.10;;
10452;SDS011;5274;51.992;8.518;2024-03-25T00:07:30;19.07;;;17.30;;
10452;SDS011;5274;51.992;8.518;2024-03-25T00:09:56;18.37;;;16.87;;
10452;SDS011;5274;51.992;8.518;2024-03-25T00:12:24;18.80;;;17.13;;
10452;SDS011;5274;51.992;8.518;2024-03-25T00:14:50;20.58;;;17.42;;
10452;SDS011;5274;51.992;8.518;2024-03-25T00:17:15;19.25;;;17.42;;
10452;SDS011;5274;51.992;8.518;2024-03-25T00:19:41;19.00;;;17.30;;
10452;SDS011;5274;51.992;8.518;2024-03-25T00:22:07;18.98;;;17.08;;
10452;SDS011;5274;51.992;8.518;2024-03-25T00:24:32;20.07;;;17.93;;
10452;SDS011;5274;51.992;8.518;2024-03-25T00:26:58;19.30;;;17.30;;
10452;SDS011;5274;51.992;8.518;2024-03-25T00:29:23;19.20;;;17.60;;
10452;SDS011;5274;51.992;8.518;2024-03-25T00:31:49;19.23;;;17.50;;
10452;SDS011;5274;51.992;8.518;2024-03-25T00:34:14;19.65;;;17.85;;
10452;SDS011;5274;51.992;8.518;2024-03-25T00:36:40;19.33;;;17.70;;
10452;SDS011;5274;51.992;8.518;2024-03-25T00:39:05;18.87;;;17.37;;
10452;SDS011;5274;51.992;8.518;2024-03-25T00:41:32;19.60;;;17.77;;
10452;SDS011;5274;51.992;8.518;2024-03-25T00:43:58;19.23;;;17.60;;
10452;SDS011;5274;51.992;8.518;2024-03-25T00:46:23;19.27;;;17.67;;
10452;SDS011;5274;51.992;8.518;2024-03-25T00:48:49;19.00;;;17.20;;
10452;SDS011;5274;51.992;8.518;2024-03-25T00:51:14;20.15;;;18.20;;
10452;SDS011;5274;51.992;8.518;2024-03-25T00:53:39;19.17;;;17.53;;
10452;SDS011;5274;51.992;8.518;2024-03-25T00:56:05;19.20;;;17.47;;
10452;SDS011;5274;51.992;8.518;2024-03-25T00:58:31;20.55;;;18.40;;
10452;SDS011;5274;51.992;8.518;2024-03-25T01:00:56;19.80;;;17.80;;
10452;SDS011;5274;51.992;8.518;2024-03-25T01:03:22;19.67;;;18.00;;
10452;SDS011;5274;51.992;8.518;2024-03-25T01:05:47;19.00;;;17.50;;
10452;SDS011;5274;51.992;8.518;2024-03-25T01:08:13;19.00;;;17.50;;
10452;SDS011;5274;51.992;8.518;2024-03-25T01:10:39;18.80;;;17.40;;
10452;SDS011;5274;51.992;8.518;2024-03-25T01:13:05;19.00;;;17.57;;
10452;SDS011;5274;51.992;8.518;2024-03-25T01:15:30;18.10;;;16.80;;
10452;SDS011;5274;51.992;8.518;2024-03-25T01:17:56;17.77;;;16.37;;
10452;SDS011;5274;51.992;8.518;2024-03-25T01:20:21;18.95;;;17.08;;
10452;SDS011;5274;51.992;8.518;2024-03-25T01:22:47;18.70;;;17.10;;
10452;SDS011;5274;51.992;8.518;2024-03-25T01:25:12;19.27;;;17.70;;
10452;SDS011;5274;51.992;8.518;2024-03-25T01:27:38;18.85;;;17.05;;
10452;SDS011;5274;51.992;8.518;2024-03-25T01:30:03;19.63;;;17.87;;
10452;SDS011;5274;51.992;8.518;2024-03-25T01:32:29;19.43;;;17.60;;
10452;SDS011;5274;51.992;8.518;2024-03-25T01:34:55;20.13;;;18.30;;
10452;SDS011;5274;51.992;8.518;2024-03-25T01:37:21;19.70;;;17.90;;
10452;SDS011;5274;51.992;8.518;2024-03-25T01:39:46;19.17;;;17.48;;
10452;SDS011;5274;51.992;8.518;2024-03-25T01:42:13;19.30;;;17.60;;
10452;SDS011;5274;51.992;8.518;2024-03-25T01:44:39;20.15;;;18.00;;
10452;SDS011;5274;51.992;8.518;2024-03-25T01:47:04;19.97;;;17.93;;
10452;SDS011;5274;51.992;8.518;2024-03-25T01:49:30;19.77;;;18.17;;
10452;SDS011;5274;51.992;8.518;2024-03-25T01:51:56;20.02;;;18.23;;
10452;SDS011;5274;51.992;8.518;2024-03-25T01:54:23;19.33;;;17.58;;
10452;SDS011;5274;51.992;8.518;2024-03-25T01:56:48;19.60;;;17.83;;
10452;SDS011;5274;51.992;8.518;2024-03-25T01:59:15;19.60;;;17.90;;
10452;SDS011;5274;51.992;8.518;2024-03-25T02:01:42;20.20;;;18.40;;
10452;SDS011;5274;51.992;8.518;2024-03-25T02:04:09;21.08;;;18.90;;
10452;SDS011;5274;51.992;8.518;2024-03-25T02:06:34;20.13;;;18.23;;
10452;SDS011;5274;51.992;8.518;2024-03-25T02:09:02;20.10;;;18.30;;
10452;SDS011;5274;51.992;8.518;2024-03-25T02:11:28;20.20;;;18.20;;
10452;SDS011;5274;51.992;8.518;2024-03-25T02:13:55;20.48;;;18.40;;
10452;SDS011;5274;51.992;8.518;2024-03-25T02:16:21;21.37;;;18.97;;
10452;SDS011;5274;51.992;8.518;2024-03-25T02:18:46;21.13;;;18.42;;
10452;SDS011;5274;51.992;8.518;2024-03-25T02:21:12;20.03;;;18.13;;
10452;SDS011;5274;51.992;8.518;2024-03-25T02:23:38;20.25;;;18.40;;
10452;SDS011;5274;51.992;8.518;2024-03-25T02:26:07;20.25;;;18.35;;
10452;SDS011;5274;51.992;8.518;2024-03-25T02:28:32;20.02;;;18.20;;
10452;SDS011;5274;51.992;8.518;2024-03-25T02:30:58;19.73;;;18.00;;
10452;SDS011;5274;51.992;8.518;2024-03-25T02:33:23;19.67;;;18.03;;
10452;SDS011;5274;51.992;8.518;2024-03-25T02:35:49;19.55;;;17.75;;
10452;SDS011;5274;51.992;8.518;2024-03-25T02:38:14;19.30;;;17.47;;
10452;SDS011;5274;51.992;8.518;2024-03-25T02:40:42;19.98;;;18.15;;
10452;SDS011;5274;51.992;8.518;2024-03-25T02:43:09;20.98;;;18.80;;
10452;SDS011;5274;51.992;8.518;2024-03-25T02:45:35;20.33;;;18.35;;
10452;SDS011;5274;51.992;8.518;2024-03-25T02:48:01;19.97;;;18.40;;
10452;SDS011;5274;51.992;8.518;2024-03-25T02:50:26;20.40;;;18.60;;
10452;SDS011;5274;51.992;8.518;2024-03-25T02:52:52;20.27;;;18.47;;
10452;SDS011;5274;51.992;8.518;2024-03-25T02:55:18;20.63;;;18.55;;
10452;SDS011;5274;51.992;8.518;2024-03-25T02:57:44;20.20;;;18.30;;
10452;SDS011;5274;51.992;8.518;2024-03-25T03:00:09;18.70;;;17.20;;
10452;SDS011;5274;51.992;8.518;2024-03-25T03:02:35;20.45;;;18.63;;
10452;SDS011;5274;51.992;8.518;2024-03-25T03:05:01;19.33;;;17.73;;
10452;SDS011;5274;51.992;8.518;2024-03-25T03:07:28;19.10;;;17.45;;
10452;SDS011;5274;51.992;8.518;2024-03-25T03:09:54;20.33;;;18.30;;
10452;SDS011;5274;51.992;8.518;2024-03-25T03:12:19;20.58;;;18.52;;
10452;SDS011;5274;51.992;8.518;2024-03-25T03:14:45;19.93;;;17.83;;
10452;SDS011;5274;51.992;8.518;2024-03-25T03:17:10;20.67;;;18.70;;
10452;SDS011;5274;51.992;8.518;2024-03-25T03:19:36;19.50;;;17.67;;
10452;SDS011;5274;51.992;8.518;2024-03-25T03:22:01;19.27;;;17.50;;
10452;SDS011;5274;51.992;8.518;2024-03-25T03:24:27;19.95;;;18.05;;
10452;SDS011;5274;51.992;8.518;2024-03-25T03:26:53;19.93;;;17.63;;
10452;SDS011;5274;51.992;8.518;2024-03-25T03:29:18;19.55;;;17.67;;
10452;SDS011;5274;51.992;8.518;2024-03-25T03:31:44;19.43;;;17.50;;
10452;SDS011;5274;51.992;8.518;2024-03-25T03:34:09;19.53;;;17.77;;
10452;SDS011;5274;51.992;8.518;2024-03-25T03:36:35;19.75;;;17.85;;
10452;SDS011;5274;51.992;8.518;2024-03-25T03:39:00;19.23;;;17.63;;
10452;SDS011;5274;51.992;8.518;2024-03-25T03:41:26;19.88;;;18.10;;
10452;SDS011;5274;51.992;8.518;2024-03-25T03:43:51;20.87;;;18.27;;
10452;SDS011;5274;51.992;8.518;2024-03-25T03:46:17;20.07;;;18.03;;
10452;SDS011;5274;51.992;8.518;2024-03-25T03:48:42;20.23;;;18.20;;
10452;SDS011;5274;51.992;8.518;2024-03-25T03:51:08;19.80;;;17.73;;
10452;SDS011;5274;51.992;8.518;2024-03-25T03:53:34;19.92;;;17.90;;
10452;SDS011;5274;51.992;8.518;2024-03-25T03:56:01;19.02;;;17.35;;
10452;SDS011;5274;51.992;8.518;2024-03-25T03:58:29;20.20;;;18.10;;
10452;SDS011;5274;51.992;8.518;2024-03-25T04:00:54;19.73;;;17.63;;
10452;SDS011;5274;51.992;8.518;2024-03-25T04:03:20;18.98;;;17.35;;
10452;SDS011;5274;51.992;8.518;2024-03-25T04:05:46;19.15;;;17.25;;
10452;SDS011;5274;51.992;8.518;2024-03-25T04:08:11;19.57;;;17.63;;
10452;SDS011;5274;51.992;8.518;2024-03-25T04:10:37;19.55;;;17.65;;
10452;SDS011;5274;51.992;8.518;2024-03-25T04:13:03;19.60;;;18.05;;
10452;SDS011;5274;51.992;8.518;2024-03-25T04:15:32;20.48;;;18.38;;
10452;SDS011;5274;51.992;8.518;2024-03-25T04:18:02;19.52;;;17.63;;
10452;SDS011;5274;51.992;8.518;2024-03-25T04:20:27;20.52;;;18.73;;
10452;SDS011;5274;51.992;8.518;2024-03-25T04:22:56;19.48;;;17.77;;
10452;SDS011;5274;51.992;8.518;2024-03-25T04:25:21;19.87;;;18.00;;
10452;SDS011;5274;51.992;8.518;2024-03-25T04:27:47;19.55;;;17.58;;
10452;SDS011;5274;51.992;8.518;2024-03-25T04:30:13;20.20;;;18.05;;
10452;SDS011;5274;51.992;8.518;2024-03-25T04:32:39;19.23;;;17.35;;
10452;SDS011;5274;51.992;8.518;2024-03-25T04:35:05;19.63;;;17.70;;
10452;SDS011;5274;51.992;8.518;2024-03-25T04:37:31;19.67;;;17.77;;
10452;SDS011;5274;51.992;8.518;2024-03-25T04:39:57;19.63;;;17.67;;
10452;SDS011;5274;51.992;8.518;2024-03-25T04:42:22;20.08;;;18.00;;
10452;SDS011;5274;51.992;8.518;2024-03-25T04:44:49;19.48;;;17.70;;
10452;SDS011;5274;51.992;8.518;2024-03-25T04:47:15;19.52;;;17.48;;
10452;SDS011;5274;51.992;8.518;2024-03-25T04:49:41;19.55;;;17.70;;
10452;SDS011;5274;51.992;8.518;2024-03-25T04:52:07;19.50;;;17.47;;
10452;SDS011;5274;51.992;8.518;2024-03-25T04:54:32;19.17;;;17.37;;
10452;SDS011;5274;51.992;8.518;2024-03-25T04:56:58;19.60;;;17.57;;
10452;SDS011;5274;51.992;8.518;2024-03-25T04:59:23;20.48;;;18.30;;
10452;SDS011;5274;51.992;8.518;2024-03-25T05:01:49;20.73;;;18.57;;
10452;SDS011;5274;51.992;8.518;2024-03-25T05:04:14;21.13;;;19.00;;
10452;SDS011;5274;51.992;8.518;2024-03-25T05:06:40;20.23;;;18.47;;
10452;SDS011;5274;51.992;8.518;2024-03-25T05:09:05;20.37;;;18.30;;
10452;SDS011;5274;51.992;8.518;2024-03-25T05:11:32;20.50;;;18.70;;
10452;SDS011;5274;51.992;8.518;2024-03-25T05:13:58;20.13;;;18.40;;
10452;SDS011;5274;51.992;8.518;2024-03-25T05:16:23;20.63;;;18.48;;
10452;SDS011;5274;51.992;8.518;2024-03-25T05:18:49;21.17;;;19.07;;
10452;SDS011;5274;51.992;8.518;2024-03-25T05:21:14;20.85;;;18.70;;
10452;SDS011;5274;51.992;8.518;2024-03-25T05:23:40;21.43;;;19.33;;
10452;SDS011;5274;51.992;8.518;2024-03-25T05:26:05;21.27;;;19.10;;
10452;SDS011;5274;51.992;8.518;2024-03-25T05:28:31;20.15;;;18.40;;
10452;SDS011;5274;51.992;8.518;2024-03-25T05:30:56;20.97;;;18.80;;
10452;SDS011;5274;51.992;8.518;2024-03-25T05:33:22;20.00;;;18.37;;
10452;SDS011;5274;51.992;8.518;2024-03-25T05:35:47;19.92;;;18.20;;
10452;SDS011;5274;51.992;8.518;2024-03-25T05:38:13;20.77;;;18.63;;
10452;SDS011;5274;51.992;8.518;2024-03-25T05:40:38;20.25;;;18.15;;
10452;SDS011;5274;51.992;8.518;2024-03-25T05:43:04;20.00;;;18.10;;
10452;SDS011;5274;51.992;8.518;2024-03-25T05:45:29;20.10;;;18.13;;
10452;SDS011;5274;51.992;8.518;2024-03-25T05:47:55;19.97;;;18.07;;
10452;SDS011;5274;51.992;8.518;2024-03-25T05:50:20;19.70;;;18.00;;
10452;SDS011;5274;51.992;8.518;2024-03-25T05:52:46;19.85;;;18.00;;
10452;SDS011;5274;51.992;8.518;2024-03-25T05:55:11;19.53;;;17.63;;
10452;SDS011;5274;51.992;8.518;2024-03-25T05:57:37;19.35;;;17.80;;
10452;SDS011;5274;51.992;8.518;2024-03-25T06:00:03;19.60;;;17.70;;
10452;SDS011;5274;51.992;8.518;2024-03-25T06:02:29;19.50;;;17.70;;
10452;SDS011;5274;51.992;8.518;2024-03-25T06:04:55;20.05;;;18.30;;
10452;SDS011;5274;51.992;8.518;2024-03-25T06:07:21;20.10;;;18.50;;
10452;SDS011;5274;51.992;8.518;2024-03-25T06:09:47;20.55;;;18.83;;
10452;SDS011;5274;51.992;8.518;2024-03-25T06:12:13;19.92;;;18.13;;
10452;SDS011;5274;51.992;8.518;2024-03-25T06:14:38;20.70;;;18.13;;
10452;SDS011;5274;51.992;8.518;2024-03-25T06:17:04;19.67;;;17.88;;
10452;SDS011;5274;51.992;8.518;2024-03-25T06:19:29;19.93;;;18.13;;
10452;SDS011;5274;51.992;8.518;2024-03-25T06:21:55;19.90;;;17.73;;
10452;SDS011;5274;51.992;8.518;2024-03-25T06:24:21;20.27;;;18.60;;
10452;SDS011;5274;51.992;8.518;2024-03-25T06:26:47;20.80;;;19.00;;
10452;SDS011;5274;51.992;8.518;2024-03-25T06:29:12;21.35;;;19.15;;
10452;SDS011;5274;51.992;8.518;2024-03-25T06:31:38;20.17;;;18.33;;
10452;SDS011;5274;51.992;8.518;2024-03-25T06:34:22;20.05;;;18.30;;
10452;SDS011;5274;51.992;8.518;2024-03-25T06:36:48;20.27;;;18.60;;
10452;SDS011;5274;51.992;8.518;2024-03-25T06:39:14;21.45;;;18.73;;
10452;SDS011;5274;51.992;8.518;2024-03-25T06:41:40;21.13;;;19.05;;
10452;SDS011;5274;51.992;8.518;2024-03-25T06:44:06;20.83;;;19.08;;
10452;SDS011;5274;51.992;8.518;2024-03-25T06:46:32;21.02;;;18.95;;
10452;SDS011;5274;51.992;8.518;2024-03-25T06:48:57;21.27;;;19.17;;
10452;SDS011;5274;51.992;8.518;2024-03-25T06:51:23;21.20;;;19.33;;
10452;SDS011;5274;51.992;8.518;2024-03-25T06:53:49;23.65;;;19.33;;
10452;SDS011;5274;51.992;8.518;2024-03-25T06:56:14;21.20;;;19.13;;
10452;SDS011;5274;51.992;8.518;2024-03-25T06:58:40;22.00;;;19.85;;
10452;SDS011;5274;51.992;8.518;2024-03-25T07:01:06;21.23;;;19.13;;
10452;SDS011;5274;51.992;8.518;2024-03-25T07:03:33;20.77;;;18.70;;
10452;SDS011;5274;51.992;8.518;2024-03-25T07:05:59;21.60;;;19.30;;
10452;SDS011;5274;51.992;8.518;2024-03-25T07:08:25;21.38;;;19.38;;
10452;SDS011;5274;51.992;8.518;2024-03-25T07:10:52;21.70;;;19.63;;
10452;SDS011;5274;51.992;8.518;2024-03-25T07:13:18;21.92;;;19.73;;
10452;SDS011;5274;51.992;8.518;2024-03-25T07:15:43;23.38;;;19.65;;
10452;SDS011;5274;51.992;8.518;2024-03-25T07:18:09;21.43;;;19.60;;
10452;SDS011;5274;51.992;8.518;2024-03-25T07:20:38;21.33;;;19.55;;
10452;SDS011;5274;51.992;8.518;2024-03-25T07:23:04;21.20;;;19.30;;
10452;SDS011;5274;51.992;8.518;2024-03-25T07:25:30;21.00;;;19.20;;
10452;SDS011;5274;51.992;8.518;2024-03-25T07:27:55;20.67;;;18.57;;
10452;SDS011;5274;51.992;8.518;2024-03-25T07:30:21;20.90;;;19.10;;
10452;SDS011;5274;51.992;8.518;2024-03-25T07:32:49;21.80;;;19.75;;
10452;SDS011;5274;51.992;8.518;2024-03-25T07:35:15;21.00;;;19.20;;
10452;SDS011;5274;51.992;8.518;2024-03-25T07:37:42;21.83;;;19.85;;
10452;SDS011;5274;51.992;8.518;2024-03-25T07:40:10;21.80;;;19.63;;
10452;SDS011;5274;51.992;8.518;2024-03-25T07:42:39;21.70;;;19.05;;
10452;SDS011;5274;51.992;8.518;2024-03-25T07:45:05;21.60;;;18.90;;
10452;SDS011;5274;51.992;8.518;2024-03-25T07:47:33;23.30;;;19.05;;
10452;SDS011;5274;51.992;8.518;2024-03-25T07:49:59;21.70;;;19.50;;
10452;SDS011;5274;51.992;8.518;2024-03-25T07:52:25;20.20;;;18.53;;
10452;SDS011;5274;51.992;8.518;2024-03-25T07:54:52;21.98;;;19.38;;
10452;SDS011;5274;51.992;8.518;2024-03-25T07:57:17;21.25;;;18.90;;
10452;SDS011;5274;51.992;8.518;2024-03-25T07:59:44;20.05;;;18.25;;
10452;SDS011;5274;51.992;8.518;2024-03-25T08:02:10;21.13;;;19.15;;
10452;SDS011;5274;51.992;8.518;2024-03-25T08:04:35;20.37;;;18.57;;
10452;SDS011;5274;51.992;8.518;2024-03-25T08:07:01;20.03;;;18.27;;
10452;SDS011;5274;51.992;8.518;2024-03-25T08:09:27;20.20;;;18.20;;
10452;SDS011;5274;51.992;8.518;2024-03-25T08:11:53;20.65;;;18.77;;
10452;SDS011;5274;51.992;8.518;2024-03-25T08:14:18;19.67;;;17.87;;
10452;SDS011;5274;51.992;8.518;2024-03-25T08:16:44;19.50;;;17.80;;
10452;SDS011;5274;51.992;8.518;2024-03-25T08:19:09;19.98;;;18.25;;
10452;SDS011;5274;51.992;8.518;2024-03-25T08:21:35;20.70;;;18.90;;
10452;SDS011;5274;51.992;8.518;2024-03-25T08:24:00;22.00;;;19.60;;
10452;SDS011;5274;51.992;8.518;2024-03-25T08:26:26;20.58;;;18.85;;
10452;SDS011;5274;51.992;8.518;2024-03-25T08:28:51;21.07;;;19.10;;
10452;SDS011;5274;51.992;8.518;2024-03-25T08:31:17;21.90;;;19.63;;
10452;SDS011;5274;51.992;8.518;2024-03-25T08:33:42;21.67;;;19.50;;
10452;SDS011;5274;51.992;8.518;2024-03-25T08:36:08;21.87;;;19.57;;
10452;SDS011;5274;51.992;8.518;2024-03-25T08:38:33;22.07;;;20.10;;
10452;SDS011;5274;51.992;8.518;2024-03-25T08:40:59;21.40;;;19.35;;
10452;SDS011;5274;51.992;8.518;2024-03-25T08:43:25;21.00;;;18.90;;
10452;SDS011;5274;51.992;8.518;2024-03-25T08:45:50;21.17;;;19.13;;
10452;SDS011;5274;51.992;8.518;2024-03-25T08:48:16;20.77;;;18.87;;
10452;SDS011;5274;51.992;8.518;2024-03-25T08:50:42;21.40;;;19.20;;
10452;SDS011;5274;51.992;8.518;2024-03-25T08:53:07;20.63;;;18.60;;
10452;SDS011;5274;51.992;8.518;2024-03-25T08:55:33;21.97;;;19.73;;
10452;SDS011;5274;51.992;8.518;2024-03-25T08:57:58;21.83;;;19.77;;
10452;SDS011;5274;51.992;8.518;2024-03-25T09:00:25;22.15;;;20.08;;
10452;SDS011;5274;51.992;8.518;2024-03-25T09:02:50;22.08;;;19.80;;
10452;SDS011;5274;51.992;8.518;2024-03-25T09:05:16;22.02;;;20.02;;
10452;SDS011;5274;51.992;8.518;2024-03-25T09:07:43;22.23;;;20.20;;
10452;SDS011;5274;51.992;8.518;2024-03-25T09:10:16;21.05;;;19.30;;
10452;SDS011;5274;51.992;8.518;2024-03-25T09:13:01;21.70;;;19.08;;
10452;SDS011;5274;51.992;8.518;2024-03-25T09:15:28;21.60;;;19.37;;
10452;SDS011;5274;51.992;8.518;2024-03-25T09:17:53;22.13;;;19.88;;
10452;SDS011;5274;51.992;8.518;2024-03-25T09:20:19;21.17;;;19.13;;
10452;SDS011;5274;51.992;8.518;2024-03-25T09:22:46;20.35;;;18.33;;
10452;SDS011;5274;51.992;8.518;2024-03-25T09:25:13;20.75;;;18.88;;
10452;SDS011;5274;51.992;8.518;2024-03-25T09:27:39;21.50;;;19.42;;
10452;SDS011;5274;51.992;8.518;2024-03-25T09:30:05;20.90;;;18.93;;
10452;SDS011;5274;51.992;8.518;2024-03-25T09:32:31;19.10;;;17.38;;
10452;SDS011;5274;51.992;8.518;2024-03-25T09:34:57;19.70;;;17.70;;
10452;SDS011;5274;51.992;8.518;2024-03-25T09:37:22;19.00;;;17.30;;
10452;SDS011;5274;51.992;8.518;2024-03-25T09:39:48;19.77;;;17.77;;
10452;SDS011;5274;51.992;8.518;2024-03-25T09:42:18;19.37;;;17.60;;
10452;SDS011;5274;51.992;8.518;2024-03-25T09:44:55;19.35;;;17.63;;
10452;SDS011;5274;51.992;8.518;2024-03-25T09:47:21;20.25;;;18.38;;
10452;SDS011;5274;51.992;8.518;2024-03-25T09:49:47;19.52;;;17.70;;
10452;SDS011;5274;51.992;8.518;2024-03-25T09:52:14;19.27;;;17.37;;
10452;SDS011;5274;51.992;8.518;2024-03-25T09:54:40;19.27;;;17.50;;
10452;SDS011;5274;51.992;8.518;2024-03-25T09:57:05;18.75;;;17.10;;
10452;SDS011;5274;51.992;8.518;2024-03-25T09:59:32;18.30;;;16.70;;
10452;SDS011;5274;51.992;8.518;2024-03-25T10:01:58;17.57;;;16.23;;
10452;SDS011;5274;51.992;8.518;2024-03-25T10:04:24;16.90;;;15.60;;
10452;SDS011;5274;51.992;8.518;2024-03-25T10:06:50;17.95;;;16.63;;
10452;SDS011;5274;51.992;8.518;2024-03-25T10:09:18;17.37;;;16.10;;
10452;SDS011;5274;51.992;8.518;2024-03-25T10:11:46;18.13;;;16.80;;
10452;SDS011;5274;51.992;8.518;2024-03-25T10:14:14;18.43;;;16.90;;
10452;SDS011;5274;51.992;8.518;2024-03-25T10:16:40;18.70;;;17.30;;
10452;SDS011;5274;51.992;8.518;2024-03-25T10:19:06;18.38;;;16.95;;
10452;SDS011;5274;51.992;8.518;2024-03-25T10:21:32;19.42;;;17.75;;
10452;SDS011;5274;51.992;8.518;2024-03-25T10:23:58;18.45;;;16.65;;
10452;SDS011;5274;51.992;8.518;2024-03-25T10:26:25;18.42;;;16.85;;
10452;SDS011;5274;51.992;8.518;2024-03-25T10:31:33;18.50;;;16.90;;
10452;SDS011;5274;51.992;8.518;2024-03-25T10:33:59;18.05;;;16.50;;
10452;SDS011;5274;51.992;8.518;2024-03-25T10:36:25;17.83;;;16.38;;
10452;SDS011;5274;51.992;8.518;2024-03-25T10:38:55;18.85;;;17.30;;
10452;SDS011;5274;51.992;8.518;2024-03-25T10:41:21;18.50;;;16.73;;
10452;SDS011;5274;51.992;8.518;2024-03-25T10:43:48;18.27;;;16.70;;
10452;SDS011;5274;51.992;8.518;2024-03-25T10:46:20;18.60;;;16.90;;
10452;SDS011;5274;51.992;8.518;2024-03-25T10:49:12;19.07;;;17.20;;
10452;SDS011;5274;51.992;8.518;2024-03-25T10:51:50;18.70;;;17.10;;
10452;SDS011;5274;51.992;8.518;2024-03-25T10:54:16;18.38;;;16.80;;
10452;SDS011;5274;51.992;8.518;2024-03-25T10:56:42;18.13;;;16.73;;
10452;SDS011;5274;51.992;8.518;2024-03-25T10:59:09;17.33;;;16.20;;
10452;SDS011;5274;51.992;8.518;2024-03-25T11:01:37;18.17;;;16.43;;
10452;SDS011;5274;51.992;8.518;2024-03-25T11:04:03;17.50;;;16.20;;
10452;SDS011;5274;51.992;8.518;2024-03-25T11:06:31;17.60;;;16.10;;
10452;SDS011;5274;51.992;8.518;2024-03-25T11:08:57;18.38;;;16.77;;
10452;SDS011;5274;51.992;8.518;2024-03-25T11:11:30;18.05;;;16.45;;
10452;SDS011;5274;51.992;8.518;2024-03-25T11:14:02;17.48;;;16.33;;
10452;SDS011;5274;51.992;8.518;2024-03-25T11:16:31;18.08;;;16.67;;
10452;SDS011;5274;51.992;8.518;2024-03-25T11:19:01;17.13;;;15.93;;
10452;SDS011;5274;51.992;8.518;2024-03-25T11:21:28;17.93;;;16.50;;
10452;SDS011;5274;51.992;8.518;2024-03-25T11:23:53;17.90;;;16.40;;
10452;SDS011;5274;51.992;8.518;2024-03-25T11:26:19;17.03;;;15.80;;
10452;SDS011;5274;51.992;8.518;2024-03-25T11:28:55;18.17;;;16.58;;
10452;SDS011;5274;51.992;8.518;2024-03-25T11:31:21;17.92;;;16.42;;
10452;SDS011;5274;51.992;8.518;2024-03-25T11:33:49;18.35;;;16.98;;
10452;SDS011;5274;51.992;8.518;2024-03-25T11:36:15;17.47;;;16.33;;
10452;SDS011;5274;51.992;8.518;2024-03-25T11:38:40;18.30;;;16.90;;
10452;SDS011;5274;51.992;8.518;2024-03-25T11:41:08;17.90;;;16.65;;
10452;SDS011;5274;51.992;8.518;2024-03-25T11:43:36;17.83;;;16.42;;
10452;SDS011;5274;51.992;8.518;2024-03-25T11:46:01;18.35;;;17.05;;
10452;SDS011;5274;51.992;8.518;2024-03-25T11:48:28;18.17;;;16.80;;
10452;SDS011;5274;51.992;8.518;2024-03-25T11:50:54;18.10;;;16.88;;
10452;SDS011;5274;51.992;8.518;2024-03-25T11:53:20;18.00;;;16.90;;
10452;SDS011;5274;51.992;8.518;2024-03-25T11:55:46;18.58;;;17.23;;
10452;SDS011;5274;51.992;8.518;2024-03-25T11:58:12;17.50;;;16.30;;
10452;SDS011;5274;51.992;8.518;2024-03-25T12:00:44;18.37;;;16.87;;
10452;SDS011;5274;51.992;8.518;2024-03-25T12:03:12;17.65;;;16.38;;
10452;SDS011;5274;51.992;8.518;2024-03-25T12:05:39;18.27;;;16.70;;
10452;SDS011;5274;51.992;8.518;2024-03-25T12:08:07;17.90;;;16.70;;
10452;SDS011;5274;51.992;8.518;2024-03-25T12:10:35;17.95;;;16.60;;
10452;SDS011;5274;51.992;8.518;2024-03-25T12:13:20;17.60;;;16.40;;
10452;SDS011;5274;51.992;8.518;2024-03-25T12:15:46;18.00;;;16.50;;
10452;SDS011;5274;51.992;8.518;2024-03-25T12:18:13;18.23;;;16.95;;
10452;SDS011;5274;51.992;8.518;2024-03-25T12:20:39;18.38;;;16.90;;
10452;SDS011;5274;51.992;8.518;2024-03-25T12:23:04;17.87;;;16.57;;
10452;SDS011;5274;51.992;8.518;2024-03-25T12:25:30;17.03;;;16.00;;
10452;SDS011;5274;51.992;8.518;2024-03-25T12:27:56;17.88;;;16.55;;
10452;SDS011;5274;51.992;8.518;2024-03-25T12:30:22;17.37;;;16.20;;
10452;SDS011;5274;51.992;8.518;2024-03-25T12:32:48;17.17;;;16.10;;
10452;SDS011;5274;51.992;8.518;2024-03-25T12:35:15;17.63;;;16.60;;
10452;SDS011;5274;51.992;8.518;2024-03-25T12:37:46;17.30;;;16.13;;
10452;SDS011;5274;51.992;8.518;2024-03-25T12:40:12;16.73;;;15.43;;
10452;SDS011;5274;51.992;8.518;2024-03-25T12:42:51;15.70;;;14.80;;
10452;SDS011;5274;51.992;8.518;2024-03-25T12:45:18;16.48;;;15.38;;
10452;SDS011;5274;51.992;8.518;2024-03-25T12:47:44;16.05;;;15.00;;
10452;SDS011;5274;51.992;8.518;2024-03-25T12:50:10;17.30;;;16.00;;
10452;SDS011;5274;51.992;8.518;2024-03-25T12:52:35;17.20;;;16.10;;
10452;SDS011;5274;51.992;8.518;2024-03-25T12:55:01;17.85;;;16.48;;
10452;SDS011;5274;51.992;8.518;2024-03-25T12:57:28;18.00;;;16.90;;
10452;SDS011;5274;51.992;8.518;2024-03-25T12:59:54;17.60;;;16.50;;
10452;SDS011;5274;51.992;8.518;2024-03-25T13:02:20;17.53;;;16.30;;
10452;SDS011;5274;51.992;8.518;2024-03-25T13:04:45;17.30;;;16.10;;
10452;SDS011;5274;51.992;8.518;2024-03-25T13:07:11;17.08;;;16.08;;
10452;SDS011;5274;51.992;8.518;2024-03-25T13:09:37;17.47;;;16.37;;
10452;SDS011;5274;51.992;8.518;2024-03-25T13:12:03;17.50;;;16.40;;
10452;SDS011;5274;51.992;8.518;2024-03-25T13:14:29;17.63;;;16.48;;
10452;SDS011;5274;51.992;8.518;2024-03-25T13:16:54;17.70;;;16.60;;
10452;SDS011;5274;51.992;8.518;2024-03-25T13:19:20;17.58;;;16.27;;
10452;SDS011;5274;51.992;8.518;2024-03-25T13:21:46;17.90;;;16.70;;
10452;SDS011;5274;51.992;8.518;2024-03-25T13:24:12;17.30;;;16.20;;
10452;SDS011;5274;51.992;8.518;2024-03-25T13:26:38;18.05;;;16.55;;
10452;SDS011;5274;51.992;8.518;2024-03-25T13:29:04;17.33;;;16.17;;
10452;SDS011;5274;51.992;8.518;2024-03-25T13:31:30;17.70;;;16.50;;
10452;SDS011;5274;51.992;8.518;2024-03-25T13:33:55;17.83;;;16.60;;
10452;SDS011;5274;51.992;8.518;2024-03-25T13:36:21;17.60;;;16.30;;
10452;SDS011;5274;51.992;8.518;2024-03-25T13:38:46;18.07;;;16.77;;
10452;SDS011;5274;51.992;8.518;2024-03-25T13:41:12;18.00;;;16.80;;
10452;SDS011;5274;51.992;8.518;2024-03-25T13:43:43;17.47;;;16.37;;
10452;SDS011;5274;51.992;8.518;2024-03-25T13:46:09;16.92;;;16.00;;
10452;SDS011;5274;51.992;8.518;2024-03-25T13:48:37;17.48;;;16.20;;
10452;SDS011;5274;51.992;8.518;2024-03-25T13:51:02;16.90;;;15.80;;
10452;SDS011;5274;51.992;8.518;2024-03-25T13:53:28;17.60;;;16.58;;
10452;SDS011;5274;51.992;8.518;2024-03-25T13:55:54;17.67;;;16.50;;
10452;SDS011;5274;51.992;8.518;2024-03-25T13:58:19;17.67;;;16.40;;
10452;SDS011;5274;51.992;8.518;2024-03-25T14:00:45;17.48;;;16.35;;
10452;SDS011;5274;51.992;8.518;2024-03-25T14:03:10;17.80;;;16.70;;
10452;SDS011;5274;51.992;8.518;2024-03-25T14:05:36;17.20;;;16.10;;
10452;SDS011;5274;51.992;8.518;2024-03-25T14:08:01;17.77;;;16.53;;
10452;SDS011;5274;51.992;8.518;2024-03-25T14:10:27;17.50;;;16.20;;
10452;SDS011;5274;51.992;8.518;2024-03-25T14:12:52;16.93;;;15.93;;
10452;SDS011;5274;51.992;8.518;2024-03-25T14:15:18;17.47;;;16.37;;
10452;SDS011;5274;51.992;8.518;2024-03-25T14:17:44;16.80;;;15.80;;
10452;SDS011;5274;51.992;8.518;2024-03-25T14:20:09;17.07;;;15.97;;
10452;SDS011;5274;51.992;8.518;2024-03-25T14:22:35;17.63;;;16.40;;
10452;SDS011;5274;51.992;8.518;2024-03-25T14:25:01;16.53;;;15.53;;
10452;SDS011;5274;51.992;8.518;2024-03-25T14:27:26;17.30;;;16.20;;
10452;SDS011;5274;51.992;8.518;2024-03-25T14:29:52;16.50;;;15.43;;